Time;durP1;ratioP1;P1;durP2;ratioP2;P2;SDS_P1;SDS_P2;PMS_P1;PMS_P2;Temp;Humidity;BMP_temperature;BMP_pressure;BME280_temperature;BME280_humidity;BME280_pressure;Samples;Min_cycle;Max_cycle;Signal;HPM_P1;HPM_P2
2021/05/01 00:00:16;;;;;;;24.98;14.93;;;10.60;56.30;;;;;;5020041;28;20026;-88
2021/05/01 00:02:43;;;;;;;21.35;13.65;;;10.70;55.60;;;;;;5015003;28;20143;-88
2021/05/01 00:05:09;;;;;;;20.08;12.88;;;10.60;56.10;;;;;;5020201;28;20029;-88
2021/05/01 00:07:35;;;;;;;16.45;10.57;;;10.60;55.90;;;;;;5015271;28;20030;-89
2021/05/01 00:10:04;;;;;;;13.68;9.65;;;10.60;56.10;;;;;;5019392;28;20404;-88
2021/05/01 00:12:29;;;;;;;13.25;8.18;;;10.60;55.80;;;;;;5016986;28;20022;-88
2021/05/01 00:14:55;;;;;;;10.75;8.18;;;10.60;56.30;;;;;;5015066;28;20041;-88
2021/05/01 00:17:21;;;;;;;11.68;8.07;;;10.60;55.80;;;;;;5019857;28;20133;-88
2021/05/01 00:19:46;;;;;;;12.13;7.47;;;10.60;55.80;;;;;;5014779;28;20045;-88
2021/05/01 00:22:12;;;;;;;12.07;7.70;;;10.60;56.00;;;;;;5019962;28;20049;-88
2021/05/01 00:24:38;;;;;;;10.45;7.20;;;10.60;55.70;;;;;;5013477;28;20022;-89
2021/05/01 00:27:03;;;;;;;11.93;8.20;;;10.50;55.40;;;;;;5018393;28;20018;-88
2021/05/01 00:29:29;;;;;;;11.02;7.47;;;10.50;55.50;;;;;;5017118;28;20014;-88
2021/05/01 00:31:55;;;;;;;9.20;7.32;;;10.40;56.10;;;;;;5017466;28;20842;-88
2021/05/01 00:34:20;;;;;;;11.77;7.90;;;10.40;56.50;;;;;;5020677;28;20045;-87
2021/05/01 00:36:46;;;;;;;10.55;7.68;;;10.30;56.10;;;;;;5015102;28;20056;-88
2021/05/01 00:39:12;;;;;;;10.85;7.93;;;10.30;56.30;;;;;;5018670;28;20025;-88
2021/05/01 00:41:37;;;;;;;12.50;8.50;;;10.20;56.10;;;;;;5015142;28;20022;-88
2021/05/01 00:44:06;;;;;;;10.85;8.00;;;10.20;56.40;;;;;;5017383;28;20026;-88
2021/05/01 00:46:32;;;;;;;13.00;9.10;;;10.20;56.60;;;;;;5015025;28;20036;-88
2021/05/01 00:48:57;;;;;;;11.52;7.97;;;10.10;56.60;;;;;;5016328;28;20429;-88
2021/05/01 00:51:23;;;;;;;13.10;8.50;;;10.10;56.00;;;;;;5020298;28;20045;-88
2021/05/01 00:53:49;;;;;;;14.07;8.68;;;10.10;56.00;;;;;;5015003;28;21417;-87
2021/05/01 00:56:15;;;;;;;12.30;8.80;;;10.10;55.60;;;;;;5018310;28;20491;-88
2021/05/01 00:58:41;;;;;;;13.25;8.90;;;10.00;56.10;;;;;;5015669;28;20030;-87
2021/05/01 01:03:37;;;;;;;11.25;8.23;;;10.00;55.80;;;;;;5014952;28;20041;-88
2021/05/01 01:06:04;;;;;;;12.10;8.65;;;9.90;56.50;;;;;;5015818;28;20472;-89
2021/05/01 01:08:30;;;;;;;11.40;8.77;;;9.90;56.40;;;;;;5018424;28;20018;-89
2021/05/01 01:10:56;;;;;;;14.88;8.98;;;9.90;56.60;;;;;;5015670;28;20040;-88
2021/05/01 01:13:22;;;;;;;15.13;9.20;;;9.90;56.00;;;;;;5013960;28;20026;-88
2021/05/01 01:15:48;;;;;;;11.85;8.35;;;9.80;56.20;;;;;;5015772;28;20794;-88
2021/05/01 01:18:14;;;;;;;11.35;8.32;;;9.80;56.20;;;;;;5015879;28;20027;-89
2021/05/01 01:20:41;;;;;;;14.48;9.18;;;9.70;56.80;;;;;;5015952;28;20050;-86
2021/05/01 01:23:06;;;;;;;10.50;8.25;;;9.70;56.40;;;;;;5039023;28;20033;-88
2021/05/01 01:25:32;;;;;;;12.10;8.88;;;9.70;56.30;;;;;;5018583;28;20029;-89
2021/05/01 01:27:59;;;;;;;12.55;8.82;;;9.70;56.60;;;;;;5015778;28;20030;-88
2021/05/01 01:30:29;;;;;;;10.52;8.30;;;9.70;56.70;;;;;;5014811;28;20026;-88
2021/05/01 01:32:59;;;;;;;13.20;9.30;;;9.60;56.70;;;;;;5014733;28;20018;-89
2021/05/01 01:35:26;;;;;;;;;;;9.60;57.00;;;;;;5017100;28;20029;-87
2021/05/01 01:37:52;;;;;;;13.20;8.90;;;9.60;56.70;;;;;;5019809;28;20364;-88
2021/05/01 01:40:19;;;;;;;15.90;9.48;;;9.60;56.90;;;;;;5018351;28;20022;-88
2021/05/01 01:42:45;;;;;;;11.73;8.85;;;9.50;57.20;;;;;;5021801;28;20068;-88
2021/05/01 01:45:13;;;;;;;18.52;10.63;;;9.50;57.00;;;;;;5016375;28;20030;-88
2021/05/01 01:47:39;;;;;;;12.70;8.65;;;9.50;56.70;;;;;;5022686;28;20017;-88
2021/05/01 01:50:07;;;;;;;14.82;9.15;;;9.40;57.40;;;;;;5019295;28;20026;-88
2021/05/01 01:52:34;;;;;;;13.23;9.20;;;9.40;57.00;;;;;;5021278;28;20026;-88
2021/05/01 01:55:00;;;;;;;13.43;10.23;;;9.40;57.40;;;;;;5018073;28;20029;-88
2021/05/01 01:57:25;;;;;;;19.40;10.73;;;9.40;57.40;;;;;;5017541;28;20029;-88
2021/05/01 01:59:51;;;;;;;17.63;11.00;;;9.30;57.60;;;;;;5022101;28;20037;-87
2021/05/01 02:02:17;;;;;;;18.52;11.38;;;9.30;57.30;;;;;;5019382;28;20022;-88
2021/05/01 02:04:42;;;;;;;14.93;9.82;;;9.30;57.50;;;;;;5020951;28;20022;-88
2021/05/01 02:07:08;;;;;;;14.10;10.38;;;9.20;58.60;;;;;;5019629;28;20034;-87
2021/05/01 02:09:33;;;;;;;15.55;9.93;;;9.20;57.90;;;;;;5009684;28;20031;-88
2021/05/01 02:11:59;;;;;;;17.45;11.27;;;9.20;58.10;;;;;;5017918;28;20057;-87
2021/05/01 02:14:25;;;;;;;12.80;10.27;;;9.10;57.90;;;;;;5017811;28;20109;-88
2021/05/01 02:16:51;;;;;;;13.90;9.85;;;9.10;57.50;;;;;;5020138;28;20113;-89
2021/05/01 02:19:16;;;;;;;15.50;11.27;;;9.10;59.10;;;;;;5018956;28;20523;-88
2021/05/01 02:21:42;;;;;;;15.68;10.50;;;9.10;58.30;;;;;;5022432;28;20014;-88
2021/05/01 02:24:08;;;;;;;17.35;10.98;;;9.00;58.80;;;;;;5018861;28;20048;-87
2021/05/01 02:26:34;;;;;;;17.88;10.30;;;9.00;58.30;;;;;;5014392;28;20022;-88
2021/05/01 02:28:59;;;;;;;15.15;11.35;;;9.00;58.90;;;;;;5019763;28;20456;-89
2021/05/01 02:31:25;;;;;;;14.50;10.40;;;8.90;58.80;;;;;;5017667;28;20018;-86
2021/05/01 02:33:50;;;;;;;14.07;10.30;;;8.90;58.90;;;;;;5021973;28;20400;-88
2021/05/01 02:36:16;;;;;;;15.82;10.75;;;9.00;58.70;;;;;;5017430;28;20026;-87
2021/05/01 02:38:42;;;;;;;17.10;10.75;;;9.00;58.60;;;;;;5020472;28;20088;-88
2021/05/01 02:41:08;;;;;;;16.98;11.45;;;8.90;58.70;;;;;;5017399;28;20558;-89
2021/05/01 02:43:33;;;;;;;15.07;10.93;;;8.90;58.40;;;;;;5020023;28;20034;-89
2021/05/01 02:46:02;;;;;;;14.10;10.50;;;8.90;58.40;;;;;;5019668;28;20036;-89
2021/05/01 02:48:31;;;;;;;15.40;10.65;;;8.80;59.20;;;;;;5017749;28;20029;-88
2021/05/01 02:50:58;;;;;;;15.25;11.15;;;8.80;59.10;;;;;;5018909;28;20026;-88
2021/05/01 02:53:24;;;;;;;16.77;11.48;;;8.80;58.80;;;;;;5018186;28;20489;-88
2021/05/01 02:55:50;;;;;;;18.23;11.63;;;8.70;59.70;;;;;;5020471;28;20022;-88
2021/05/01 02:58:16;;;;;;;17.05;10.82;;;8.70;59.00;;;;;;5017226;28;20037;-88
2021/05/01 03:00:41;;;;;;;17.70;10.27;;;8.70;59.30;;;;;;5020568;28;20022;-88
2021/05/01 03:03:07;;;;;;;19.25;11.93;;;8.60;59.40;;;;;;5017616;28;20106;-88
2021/05/01 03:05:33;;;;;;;17.13;11.70;;;8.60;59.90;;;;;;5016878;28;20068;-88
2021/05/01 03:07:59;;;;;;;17.42;11.93;;;8.60;60.00;;;;;;5020682;28;20100;-89
2021/05/01 03:10:27;;;;;;;19.63;12.32;;;8.60;59.30;;;;;;5017640;28;20026;-88
2021/05/01 03:12:53;;;;;;;15.52;10.63;;;8.50;59.70;;;;;;5021505;28;20100;-88
2021/05/01 03:15:20;;;;;;;17.02;12.07;;;8.50;60.90;;;;;;5018477;28;20029;-87
2021/05/01 03:17:47;;;;;;;15.73;11.27;;;8.40;60.40;;;;;;5019873;28;20029;-89
2021/05/01 03:20:15;;;;;;;16.52;11.82;;;8.40;60.30;;;;;;5018598;28;20041;-89
2021/05/01 03:22:41;;;;;;;18.50;12.05;;;8.30;60.40;;;;;;5014928;28;20134;-89
2021/05/01 03:25:08;;;;;;;21.42;10.35;;;8.40;60.60;;;;;;5017842;28;20022;-88
2021/05/01 03:27:34;;;;;;;16.85;11.73;;;8.40;60.30;;;;;;5018148;28;20104;-89
2021/05/01 03:30:00;;;;;;;14.75;10.52;;;8.40;60.60;;;;;;5019107;28;20088;-88
2021/05/01 03:32:26;;;;;;;16.65;10.05;;;8.30;60.60;;;;;;5016846;28;20026;-89
2021/05/01 03:34:52;;;;;;;18.13;11.65;;;8.30;61.00;;;;;;5019143;28;20080;-88
2021/05/01 03:37:17;;;;;;;16.65;11.68;;;8.30;60.70;;;;;;5018408;28;20026;-88
2021/05/01 03:39:43;;;;;;;16.40;10.82;;;8.30;60.60;;;;;;5015679;28;20037;-88
2021/05/01 03:42:09;;;;;;;16.58;11.32;;;8.20;60.20;;;;;;5020875;28;20511;-88
2021/05/01 03:44:35;;;;;;;18.42;10.88;;;8.20;60.30;;;;;;5017476;28;20512;-88
2021/05/01 03:47:01;;;;;;;16.20;10.52;;;8.20;60.80;;;;;;5015872;28;20017;-88
2021/05/01 03:49:26;;;;;;;17.65;10.93;;;8.20;61.10;;;;;;5010811;28;20520;-88
2021/05/01 03:51:52;;;;;;;18.55;11.73;;;8.10;61.30;;;;;;5018251;28;20866;-88
2021/05/01 03:54:18;;;;;;;16.60;11.82;;;8.10;61.40;;;;;;5019010;28;20022;-88
2021/05/01 03:56:43;;;;;;;17.33;11.63;;;8.10;61.10;;;;;;5016276;28;20432;-88
2021/05/01 03:59:09;;;;;;;18.10;11.43;;;8.10;61.20;;;;;;5022291;28;20018;-88
2021/05/01 04:01:35;;;;;;;18.25;11.88;;;8.10;61.30;;;;;;5015967;28;20036;-88
2021/05/01 04:04:02;;;;;;;15.10;11.38;;;8.10;61.10;;;;;;5020213;28;20061;-88
2021/05/01 04:06:28;;;;;;;16.77;11.68;;;8.00;60.70;;;;;;5015592;28;20025;-88
2021/05/01 04:08:56;;;;;;;17.30;11.50;;;8.00;61.50;;;;;;5019094;28;20048;-88
2021/05/01 04:11:22;;;;;;;18.27;11.85;;;8.00;60.90;;;;;;5017953;28;20014;-88
2021/05/01 04:13:47;;;;;;;17.45;11.68;;;8.00;61.10;;;;;;5015649;28;20511;-88
2021/05/01 04:16:17;;;;;;;16.42;11.38;;;8.00;61.60;;;;;;5020193;28;20030;-88
2021/05/01 04:18:44;;;;;;;17.33;11.70;;;8.00;60.50;;;;;;5013920;28;20096;-88
2021/05/01 04:21:10;;;;;;;17.02;10.80;;;8.00;61.20;;;;;;5019769;28;20033;-89
2021/05/01 04:23:36;;;;;;;16.23;11.30;;;8.00;61.50;;;;;;5016906;28;20026;-88
2021/05/01 04:26:02;;;;;;;17.65;11.60;;;7.90;62.20;;;;;;5017677;28;20025;-88
2021/05/01 04:28:28;;;;;;;19.45;11.65;;;7.90;62.10;;;;;;5017183;28;20121;-88
2021/05/01 04:30:55;;;;;;;18.85;11.65;;;7.80;61.80;;;;;;5015179;28;20060;-88
2021/05/01 04:33:21;;;;;;;19.48;11.80;;;7.80;61.60;;;;;;5019749;28;20439;-88
2021/05/01 04:35:47;;;;;;;16.30;11.20;;;7.80;62.00;;;;;;5017010;28;20025;-89
2021/05/01 04:38:13;;;;;;;16.60;11.18;;;7.80;62.20;;;;;;5019375;28;20022;-87
2021/05/01 04:40:39;;;;;;;18.70;13.38;;;7.80;62.10;;;;;;5016721;28;20073;-88
2021/05/01 04:43:08;;;;;;;21.63;12.23;;;7.80;62.10;;;;;;5016050;28;20033;-88
2021/05/01 04:45:36;;;;;;;18.33;12.00;;;7.80;62.60;;;;;;5016718;28;20088;-89
2021/05/01 04:48:02;;;;;;;21.15;12.82;;;7.80;62.30;;;;;;5016625;28;20076;-89
2021/05/01 04:50:27;;;;;;;18.80;12.65;;;7.80;62.70;;;;;;5018349;28;20025;-89
2021/05/01 04:52:53;;;;;;;18.67;12.45;;;7.80;63.10;;;;;;5015174;28;20030;-87
2021/05/01 04:55:19;;;;;;;19.67;11.40;;;7.80;63.00;;;;;;5017931;28;20033;-87
2021/05/01 04:57:46;;;;;;;19.30;12.75;;;7.80;63.20;;;;;;5015174;28;20041;-88
2021/05/01 05:00:14;;;;;;;17.58;12.02;;;7.80;63.20;;;;;;5019336;28;20037;-88
2021/05/01 05:02:40;;;;;;;20.65;12.77;;;7.80;63.30;;;;;;5020523;28;20018;-88
2021/05/01 05:05:07;;;;;;;19.42;11.48;;;7.80;63.40;;;;;;5020674;28;20022;-88
2021/05/01 05:07:33;;;;;;;19.48;12.68;;;7.80;63.70;;;;;;5020378;28;20018;-88
2021/05/01 05:09:59;;;;;;;17.83;12.25;;;7.80;63.80;;;;;;5015651;28;20041;-88
2021/05/01 05:12:25;;;;;;;20.38;12.45;;;7.80;64.50;;;;;;5015156;28;20032;-87
2021/05/01 05:14:51;;;;;;;16.42;11.77;;;7.80;63.70;;;;;;5012754;28;20058;-88
2021/05/01 05:17:17;;;;;;;19.27;12.65;;;7.80;63.20;;;;;;5012013;28;20040;-88
2021/05/01 05:19:43;;;;;;;19.73;12.63;;;7.90;63.30;;;;;;5014353;28;20070;-87
2021/05/01 05:22:10;;;;;;;21.70;13.57;;;7.90;61.90;;;;;;5014649;28;20069;-87
2021/05/01 05:24:38;;;;;;;18.80;11.70;;;7.90;63.50;;;;;;5011422;28;20022;-88
2021/05/01 05:27:04;;;;;;;19.08;13.02;;;7.90;63.10;;;;;;5014785;28;20026;-88
2021/05/01 05:29:32;;;;;;;19.00;12.95;;;7.90;63.20;;;;;;5014582;28;20522;-87
2021/05/01 05:31:58;;;;;;;18.25;11.68;;;7.90;63.20;;;;;;5013086;28;20400;-85
2021/05/01 05:34:24;;;;;;;20.88;12.10;;;7.90;63.90;;;;;;5014657;28;20025;-88
2021/05/01 05:36:49;;;;;;;19.60;11.90;;;7.90;63.70;;;;;;5015472;28;20025;-87
2021/05/01 05:39:16;;;;;;;19.65;12.23;;;7.90;63.80;;;;;;5016130;28;20021;-87
2021/05/01 05:41:43;;;;;;;20.30;11.68;;;8.00;63.80;;;;;;5014494;28;20037;-88
2021/05/01 05:44:09;;;;;;;17.42;11.77;;;8.00;62.70;;;;;;5015704;28;20046;-88
2021/05/01 05:46:35;;;;;;;18.48;11.52;;;8.00;63.50;;;;;;5014470;28;20740;-86
2021/05/01 05:49:00;;;;;;;18.67;11.38;;;8.00;63.70;;;;;;5015962;28;20026;-88
2021/05/01 05:51:26;;;;;;;23.00;12.75;;;8.10;63.50;;;;;;5027328;28;20033;-83
2021/05/01 05:53:52;;;;;;;17.92;11.77;;;8.10;63.20;;;;;;5022021;28;20524;-85
2021/05/01 05:56:17;;;;;;;18.73;11.65;;;8.20;63.40;;;;;;5027444;28;20033;-85
2021/05/01 05:58:43;;;;;;;15.73;11.35;;;8.20;61.90;;;;;;5034946;28;20124;-87
2021/05/01 06:01:10;;;;;;;17.17;11.57;;;8.30;62.90;;;;;;5033681;28;20451;-86
2021/05/01 06:03:38;;;;;;;20.55;11.90;;;8.30;63.10;;;;;;5016363;28;21156;-83
2021/05/01 06:06:07;;;;;;;15.90;10.75;;;8.40;62.70;;;;;;5006413;28;20481;-83
2021/05/01 06:08:33;;;;;;;16.50;11.50;;;8.40;62.20;;;;;;5013131;28;20396;-85
2021/05/01 06:11:01;;;;;;;16.60;11.30;;;8.40;62.80;;;;;;4993621;28;20650;-86
2021/05/01 06:13:31;;;;;;;18.02;11.32;;;8.40;63.00;;;;;;4999490;28;20033;-86
2021/05/01 06:15:58;;;;;;;16.42;11.63;;;8.50;62.30;;;;;;5012782;28;20037;-85
2021/05/01 06:18:26;;;;;;;20.88;11.90;;;8.50;62.40;;;;;;5007631;28;20104;-83
2021/05/01 06:20:52;;;;;;;16.45;11.98;;;8.50;62.20;;;;;;4993243;28;20065;-84
2021/05/01 06:23:19;;;;;;;15.50;11.32;;;8.50;63.10;;;;;;5010259;28;20025;-81
2021/05/01 06:25:46;;;;;;;17.08;11.20;;;8.60;63.00;;;;;;5016278;28;20105;-81
2021/05/01 06:28:12;;;;;;;14.15;10.40;;;8.60;63.00;;;;;;5017466;28;20148;-80
2021/05/01 06:30:39;;;;;;;14.32;10.77;;;8.60;63.10;;;;;;5018554;28;20018;-83
2021/05/01 06:33:09;;;;;;;18.38;11.38;;;8.60;63.50;;;;;;5044012;28;20378;-82
2021/05/01 06:35:36;;;;;;;21.25;11.65;;;8.60;63.60;;;;;;4998627;28;20026;-83
2021/05/01 06:38:02;;;;;;;21.67;12.52;;;8.60;63.60;;;;;;5013896;28;20139;-83
2021/05/01 06:40:33;;;;;;;20.75;11.38;;;8.60;64.20;;;;;;5021452;28;20064;-83
2021/05/01 06:43:14;;;;;;;17.88;11.35;;;8.70;64.20;;;;;;5025680;28;20022;-84
2021/05/01 06:45:43;;;;;;;16.17;10.35;;;8.70;64.50;;;;;;5023971;28;20018;-83
2021/05/01 06:48:14;;;;;;;17.27;11.88;;;8.80;64.50;;;;;;5036392;28;20634;-84
2021/05/01 06:50:40;;;;;;;18.17;11.15;;;9.20;62.60;;;;;;5035791;28;20029;-84
2021/05/01 06:53:07;;;;;;;19.05;11.35;;;9.20;62.40;;;;;;5015415;28;20049;-84
2021/05/01 06:55:33;;;;;;;15.98;11.13;;;9.20;62.90;;;;;;5015129;28;20030;-85
2021/05/01 06:58:00;;;;;;;18.17;12.57;;;9.20;62.80;;;;;;5018335;28;20033;-84
2021/05/01 07:00:28;;;;;;;18.02;11.40;;;9.20;63.10;;;;;;5026934;28;20080;-84
2021/05/01 07:03:05;;;;;;;16.02;11.77;;;9.30;62.60;;;;;;5001475;28;20033;-83
2021/05/01 07:05:32;;;;;;;16.80;10.30;;;9.30;62.10;;;;;;5015845;28;20149;-85
2021/05/01 07:07:57;;;;;;;18.20;11.43;;;9.40;62.70;;;;;;4996399;28;20548;-85
2021/05/01 07:10:24;;;;;;;17.08;10.75;;;9.60;61.90;;;;;;4997133;28;20065;-87
2021/05/01 07:12:49;;;;;;;15.57;11.13;;;9.90;61.20;;;;;;5002059;28;20436;-84
2021/05/01 07:15:16;;;;;;;17.27;11.43;;;10.80;59.30;;;;;;5010968;28;20037;-86
2021/05/01 07:17:43;;;;;;;13.35;9.27;;;13.40;53.50;;;;;;4998264;28;20036;-87
2021/05/01 07:20:11;;;;;;;11.35;9.85;;;15.70;47.60;;;;;;4996628;28;20105;-87
2021/05/01 07:22:37;;;;;;;11.27;9.48;;;17.30;43.60;;;;;;4999538;28;20042;-86
2021/05/01 07:25:06;;;;;;;13.43;9.82;;;17.30;42.30;;;;;;5024683;28;20164;-84
2021/05/01 07:27:59;;;;;;;13.02;9.82;;;16.40;43.10;;;;;;5002954;28;20013;-79
2021/05/01 07:30:27;;;;;;;12.52;8.82;;;15.80;44.30;;;;;;5007926;28;20064;-84
2021/05/01 07:32:56;;;;;;;12.00;9.38;;;15.60;45.20;;;;;;5017361;28;20021;-85
2021/05/01 07:35:24;;;;;;;12.57;10.55;;;15.80;44.60;;;;;;5014860;28;20041;-85
2021/05/01 07:37:51;;;;;;;12.25;9.05;;;16.70;43.80;;;;;;5019580;28;20097;-88
2021/05/01 07:40:23;;;;;;;10.63;8.68;;;18.10;41.00;;;;;;5022301;28;20485;-89
2021/05/01 07:42:50;;;;;;;11.20;9.13;;;19.40;39.50;;;;;;5047217;28;20176;-86
2021/05/01 07:45:21;;;;;;;12.10;9.23;;;21.20;36.90;;;;;;4998099;28;20113;-86
2021/05/01 07:47:50;;;;;;;10.13;9.13;;;22.60;34.80;;;;;;5012328;28;20094;-85
2021/05/01 07:50:17;;;;;;;10.65;9.48;;;23.70;33.40;;;;;;4996981;28;20162;-84
2021/05/01 07:52:43;;;;;;;10.07;9.07;;;24.70;32.10;;;;;;5005647;28;20034;-85
2021/05/01 07:55:09;;;;;;;8.60;7.80;;;25.50;31.00;;;;;;5011854;28;20038;-81
2021/05/01 07:57:35;;;;;;;9.23;8.43;;;26.10;30.40;;;;;;5002618;28;20022;-78
2021/05/01 08:00:02;;;;;;;9.40;7.93;;;26.40;29.70;;;;;;5002928;28;20037;-81
2021/05/01 08:02:28;;;;;;;9.90;9.05;;;27.00;29.80;;;;;;5007456;28;20026;-82
2021/05/01 08:04:54;;;;;;;9.00;8.10;;;27.40;29.20;;;;;;5004987;28;20030;-81
2021/05/01 08:07:19;;;;;;;8.85;8.02;;;27.90;28.70;;;;;;5014520;28;20026;-82
2021/05/01 08:09:45;;;;;;;8.65;7.75;;;28.30;28.20;;;;;;5013878;28;20382;-82
2021/05/01 08:12:11;;;;;;;9.13;8.32;;;28.70;28.20;;;;;;5012907;28;20028;-84
2021/05/01 08:14:36;;;;;;;8.93;8.13;;;29.20;27.60;;;;;;5017103;28;20513;-82
2021/05/01 08:17:02;;;;;;;8.13;7.43;;;29.30;27.20;;;;;;5011654;28;20034;-83
2021/05/01 08:19:28;;;;;;;8.02;7.22;;;29.50;27.40;;;;;;5013569;28;20455;-82
2021/05/01 08:21:53;;;;;;;8.60;7.85;;;29.90;27.10;;;;;;5013740;28;20045;-83
2021/05/01 08:24:19;;;;;;;9.10;8.30;;;30.20;27.00;;;;;;5013797;28;20030;-83
2021/05/01 08:26:45;;;;;;;8.27;7.57;;;30.20;26.80;;;;;;5010784;28;20038;-83
2021/05/01 08:29:10;;;;;;;9.35;8.63;;;30.50;27.30;;;;;;5005432;28;20029;-79
2021/05/01 08:31:36;;;;;;;10.13;9.05;;;30.60;27.00;;;;;;5005855;28;20037;-84
2021/05/01 08:34:02;;;;;;;10.60;9.70;;;30.70;26.30;;;;;;5006549;28;20037;-84
2021/05/01 08:36:28;;;;;;;11.05;10.15;;;30.70;26.20;;;;;;5009375;28;20025;-84
2021/05/01 08:38:54;;;;;;;9.57;8.75;;;31.00;26.40;;;;;;5009921;28;20374;-84
2021/05/01 08:41:21;;;;;;;9.68;8.73;;;31.20;26.20;;;;;;5019913;28;20036;-84
2021/05/01 08:43:46;;;;;;;9.90;9.10;;;31.40;26.60;;;;;;5020172;28;20037;-84
2021/05/01 08:46:13;;;;;;;9.75;8.90;;;31.50;26.00;;;;;;5017599;28;20030;-84
2021/05/01 08:48:46;;;;;;;9.40;8.60;;;31.40;26.10;;;;;;5015788;28;20021;-85
2021/05/01 08:51:13;;;;;;;9.30;8.50;;;31.30;26.60;;;;;;5016275;28;20026;-84
2021/05/01 08:53:39;;;;;;;8.95;8.10;;;31.10;26.50;;;;;;5015479;28;20129;-82
2021/05/01 08:56:05;;;;;;;8.43;7.63;;;31.20;26.30;;;;;;5014206;28;20038;-84
2021/05/01 08:58:31;;;;;;;8.40;7.70;;;31.40;26.50;;;;;;5015319;28;20110;-84
2021/05/01 09:00:57;;;;;;;8.35;7.57;;;31.50;26.10;;;;;;5015261;28;20165;-84
2021/05/01 09:03:23;;;;;;;6.97;6.43;;;31.60;26.90;;;;;;5012929;28;20033;-84
2021/05/01 09:05:53;;;;;;;8.73;7.90;;;31.60;25.80;;;;;;5015455;28;20777;-84
2021/05/01 09:08:21;;;;;;;8.45;7.75;;;31.60;25.90;;;;;;5015771;28;20380;-84
2021/05/01 09:10:52;;;;;;;6.43;5.93;;;31.50;26.10;;;;;;5013443;28;20438;-84
2021/05/01 09:13:20;;;;;;;7.78;6.95;;;31.20;25.10;;;;;;5015504;28;20061;-84
2021/05/01 09:16:09;;;;;;;8.15;7.32;;;31.40;25.90;;;;;;5015394;28;20079;-84
2021/05/01 09:18:48;;;;;;;;;;;31.50;26.40;;;;;;5011824;28;20033;-84
2021/05/01 09:21:26;;;;;;;8.48;7.78;;;31.40;25.80;;;;;;5015788;28;20000;-84
2021/05/01 09:23:53;;;;;;;7.97;7.15;;;30.80;25.90;;;;;;5015086;28;20034;-83
2021/05/01 09:26:33;;;;;;;6.43;5.85;;;31.00;25.90;;;;;;5013438;28;20030;-83
2021/05/01 09:28:59;;;;;;;6.15;5.65;;;31.20;25.50;;;;;;5010134;28;20082;-83
2021/05/01 09:31:27;;;;;;;4.97;4.47;;;31.30;25.40;;;;;;5015450;28;20018;-84
2021/05/01 09:33:54;;;;;;;5.32;4.82;;;31.30;24.80;;;;;;5013119;28;20901;-84
2021/05/01 09:36:22;;;;;;;5.43;4.90;;;31.60;25.60;;;;;;5015682;28;20041;-84
2021/05/01 09:38:48;;;;;;;5.78;5.18;;;31.40;24.90;;;;;;5015238;28;20802;-84
2021/05/01 09:41:17;;;;;;;5.15;4.65;;;31.30;25.40;;;;;;5015842;28;20476;-83
2021/05/01 09:44:04;;;;;;;4.90;4.50;;;31.20;25.30;;;;;;5013989;28;20393;-84
2021/05/01 09:46:32;;;;;;;5.07;4.57;;;30.90;25.60;;;;;;5015735;28;20507;-84
2021/05/01 09:49:07;;;;;;;5.25;4.43;;;30.80;25.80;;;;;;5009195;28;20038;-83
2021/05/01 09:51:42;;;;;;;4.90;4.50;;;30.90;25.90;;;;;;5015606;28;20030;-82
2021/05/01 09:54:09;;;;;;;4.32;3.95;;;30.70;25.10;;;;;;5014892;28;20060;-81
2021/05/01 09:56:35;;;;;;;5.32;4.78;;;30.50;24.80;;;;;;5009497;28;20056;-82
2021/05/01 09:59:03;;;;;;;5.18;4.57;;;30.30;24.70;;;;;;5016654;28;20033;-81
2021/05/01 10:01:28;;;;;;;4.95;4.55;;;30.20;25.40;;;;;;5026727;28;20127;-86
2021/05/01 10:04:14;;;;;;;4.93;4.05;;;30.00;25.50;;;;;;5016527;28;20046;-85
2021/05/01 10:07:11;;;;;;;5.13;4.63;;;29.70;26.00;;;;;;5011312;28;20033;-87
2021/05/01 10:09:42;;;;;;;5.20;4.70;;;29.50;25.20;;;;;;5015872;28;20475;-81
2021/05/01 10:12:12;;;;;;;5.18;4.03;;;29.10;25.40;;;;;;5015990;28;20052;-85
2021/05/01 10:14:40;;;;;;;4.95;4.28;;;28.70;26.00;;;;;;5017114;28;20415;-86
2021/05/01 10:17:06;;;;;;;5.70;5.00;;;;;;;;;;5018317;28;20041;-86
2021/05/01 10:19:43;;;;;;;6.13;5.15;;;;;;;;;;5019253;28;20064;-83
2021/05/01 10:22:45;;;;;;;5.78;4.43;;;;;;;;;;5017231;28;20033;-83
2021/05/01 10:25:12;;;;;;;5.32;4.60;;;;;;;;;;5031597;28;20425;-85
2021/05/01 10:28:11;;;;;;;5.28;4.78;;;28.40;26.10;;;;;;5020417;28;20080;-87
2021/05/01 10:30:41;;;;;;;5.72;4.30;;;25.90;26.70;;;;;;5015465;28;20385;-85
2021/05/01 10:33:32;;;;;;;7.43;5.07;;;25.10;27.20;;;;;;5014565;28;20493;-85
2021/05/01 10:36:01;;;;;;;6.88;4.93;;;24.60;27.00;;;;;;5047741;28;20034;-87
2021/05/01 10:38:27;;;;;;;6.80;5.37;;;23.90;27.40;;;;;;5017237;28;20452;-86
2021/05/01 10:41:01;;;;;;;6.22;4.95;;;23.50;28.40;;;;;;5013006;28;20511;-85
2021/05/01 10:43:32;;;;;;;6.57;5.68;;;23.20;28.90;;;;;;5017445;28;20478;-84
2021/05/01 10:46:07;;;;;;;6.72;5.93;;;22.90;29.10;;;;;;5017985;28;20026;-84
2021/05/01 10:48:45;;;;;;;8.60;6.50;;;22.80;30.30;;;;;;5016359;28;20104;-80
2021/05/01 10:51:11;;;;;;;6.70;5.97;;;22.60;30.30;;;;;;5017144;28;20092;-83
2021/05/01 10:53:38;;;;;;;7.38;5.15;;;22.50;30.60;;;;;;5016795;28;20026;-82
2021/05/01 10:56:05;;;;;;;5.82;5.22;;;22.30;31.30;;;;;;5002186;28;20030;-81
2021/05/01 10:58:34;;;;;;;6.35;4.88;;;22.10;30.50;;;;;;5007280;28;20048;-81
2021/05/01 11:01:01;;;;;;;8.38;5.22;;;22.10;30.60;;;;;;5010536;28;20144;-81
2021/05/01 11:03:28;;;;;;;6.03;5.18;;;21.80;29.90;;;;;;5007074;28;20112;-80
2021/05/01 11:05:57;;;;;;;6.60;5.95;;;21.60;30.00;;;;;;5006314;28;20131;-82
2021/05/01 11:08:38;;;;;;;8.00;5.75;;;21.40;30.70;;;;;;5006126;28;20022;-82
2021/05/01 11:11:08;;;;;;;7.20;5.03;;;21.20;31.20;;;;;;5007356;28;20072;-84
2021/05/01 11:13:36;;;;;;;6.53;4.53;;;21.30;31.50;;;;;;5007678;28;20038;-83
2021/05/01 11:16:09;;;;;;;6.20;4.82;;;21.50;32.10;;;;;;5008610;28;20117;-81
2021/05/01 11:18:37;;;;;;;6.30;5.18;;;21.40;30.30;;;;;;5007964;28;20120;-80
2021/05/01 11:21:07;;;;;;;5.10;4.60;;;21.40;30.00;;;;;;5007771;28;20103;-81
2021/05/01 11:23:35;;;;;;;4.78;4.18;;;21.20;30.50;;;;;;5015417;28;20036;-82
2021/05/01 11:26:04;;;;;;;4.35;3.95;;;21.40;31.20;;;;;;5015747;28;20028;-81
2021/05/01 11:28:32;;;;;;;5.27;3.77;;;21.30;29.90;;;;;;5016256;28;20045;-84
2021/05/01 11:30:58;;;;;;;5.30;3.88;;;21.20;30.60;;;;;;5042415;28;20770;-83
2021/05/01 11:33:26;;;;;;;4.45;3.78;;;21.00;29.80;;;;;;5019084;28;20137;-88
2021/05/01 11:35:53;;;;;;;5.30;3.72;;;20.90;29.90;;;;;;5019582;28;20029;-84
2021/05/01 11:38:38;;;;;;;5.80;3.88;;;21.00;30.00;;;;;;5022572;28;20026;-87
2021/05/01 11:41:09;;;;;;;6.32;4.95;;;21.20;30.10;;;;;;5010816;28;20060;-86
2021/05/01 11:43:38;;;;;;;6.32;4.63;;;21.10;29.40;;;;;;5025033;28;20033;-87
2021/05/01 11:46:29;;;;;;;7.45;5.28;;;21.10;30.70;;;;;;5020912;28;20112;-80
2021/05/01 11:49:04;;;;;;;5.50;4.75;;;21.00;30.70;;;;;;5024931;28;20022;-78
2021/05/01 11:51:55;;;;;;;5.47;4.47;;;20.80;30.90;;;;;;5007093;28;20029;-80
2021/05/01 11:54:38;;;;;;;5.90;4.32;;;20.70;31.20;;;;;;5013833;28;20090;-80
2021/05/01 11:57:19;;;;;;;4.85;3.80;;;20.50;30.50;;;;;;5015811;28;20564;-80
2021/05/01 11:59:46;;;;;;;;;;;20.60;30.20;;;;;;5013812;28;20116;-81
2021/05/01 12:02:14;;;;;;;4.60;3.92;;;20.60;31.70;;;;;;5016130;28;19913;-81
2021/05/01 12:04:52;;;;;;;7.18;4.07;;;20.70;31.10;;;;;;5015158;28;20062;-81
2021/05/01 12:07:29;;;;;;;6.80;4.22;;;20.70;31.10;;;;;;5013337;28;20034;-81
2021/05/01 12:10:05;;;;;;;7.30;4.90;;;20.40;31.00;;;;;;5017603;28;20416;-81
2021/05/01 12:12:33;;;;;;;4.38;3.45;;;20.30;30.80;;;;;;5015380;28;20152;-82
2021/05/01 12:15:06;;;;;;;5.38;4.25;;;20.40;31.70;;;;;;5020617;28;20033;-79
2021/05/01 12:17:32;;;;;;;4.13;3.72;;;20.60;31.10;;;;;;5019844;28;20022;-82
2021/05/01 12:20:10;;;;;;;6.35;4.35;;;20.80;31.50;;;;;;5019942;28;20056;-78
2021/05/01 12:22:35;;;;;;;5.25;4.45;;;20.80;31.50;;;;;;5017953;28;20029;-80
2021/05/01 12:25:32;;;;;;;4.93;4.22;;;20.70;31.20;;;;;;5016869;28;20032;-80
2021/05/01 12:27:58;;;;;;;4.88;4.00;;;20.40;31.10;;;;;;5022237;28;20033;-79
2021/05/01 12:30:39;;;;;;;5.30;4.05;;;20.10;31.10;;;;;;5018498;28;20025;-80
2021/05/01 12:33:26;;;;;;;9.60;4.80;;;19.80;30.90;;;;;;5017610;28;20032;-87
2021/05/01 12:35:53;;;;;;;4.95;3.97;;;19.50;32.20;;;;;;5019148;28;20487;-80
2021/05/01 12:38:21;;;;;;;5.82;4.78;;;19.40;32.60;;;;;;5023823;28;20040;-80
2021/05/01 12:40:47;;;;;;;6.88;3.92;;;19.30;32.20;;;;;;5021560;28;20037;-82
2021/05/01 12:43:43;;;;;;;4.93;3.45;;;19.40;33.00;;;;;;5023315;28;20036;-82
2021/05/01 12:46:29;;;;;;;6.65;4.05;;;19.70;33.50;;;;;;5014818;28;20044;-79
2021/05/01 12:49:03;;;;;;;7.22;4.28;;;20.00;32.90;;;;;;5014089;28;20026;-85
2021/05/01 12:51:32;;;;;;;4.60;3.95;;;20.10;31.40;;;;;;5017261;28;20025;-84